createdAt,value
2024-02-28T00:00:29.137Z,1.75
2024-02-28T00:02:55.989Z,1.60
2024-02-28T00:05:22.895Z,1.95
2024-02-28T00:07:49.664Z,1.58
2024-02-28T00:10:16.763Z,1.30
2024-02-28T00:12:43.652Z,1.98
2024-02-28T00:15:12.285Z,1.48
2024-02-28T00:17:41.615Z,1.63
2024-02-28T00:20:10.110Z,1.40
2024-02-28T00:22:38.155Z,1.52
2024-02-28T00:25:07.564Z,1.70
2024-02-28T00:27:35.891Z,1.35
2024-02-28T00:30:03.536Z,2.25
2024-02-28T00:32:30.321Z,1.52
2024-02-28T00:34:57.186Z,1.80
2024-02-28T00:37:24.072Z,3.83
2024-02-28T00:39:51.463Z,1.33
2024-02-28T00:42:18.450Z,1.33
2024-02-28T00:44:45.306Z,2.15
2024-02-28T00:47:12.172Z,1.33
2024-02-28T00:49:39.277Z,1.52
2024-02-28T00:54:52.234Z,2.20
2024-02-28T00:57:19.663Z,1.83
2024-02-28T00:59:46.568Z,1.98
2024-02-28T01:02:13.856Z,1.65
2024-02-28T01:04:42.335Z,1.85
2024-02-28T01:07:09.094Z,1.50
2024-02-28T01:09:36.242Z,1.10
2024-02-28T01:12:03.401Z,1.88
2024-02-28T01:14:31.172Z,1.70
2024-02-28T01:16:57.906Z,2.17
2024-02-28T01:19:25.039Z,1.50
2024-02-28T01:21:51.948Z,1.83
2024-02-28T01:24:18.775Z,2.00
2024-02-28T01:26:45.738Z,1.85
2024-02-28T01:29:15.539Z,2.67
2024-02-28T01:31:42.312Z,1.20
2024-02-28T01:34:09.628Z,1.85
2024-02-28T01:36:36.400Z,0.98
2024-02-28T01:39:04.428Z,1.40
2024-02-28T01:41:31.159Z,1.50
2024-02-28T01:43:57.904Z,2.10
2024-02-28T01:46:33.491Z,1.80
2024-02-28T01:49:00.934Z,1.70
2024-02-28T01:51:37.567Z,1.40
2024-02-28T01:54:05.160Z,2.17
2024-02-28T01:56:33.163Z,1.42
2024-02-28T01:59:02.855Z,2.40
2024-02-28T02:01:29.733Z,1.52
2024-02-28T02:03:56.808Z,1.83
2024-02-28T02:06:24.169Z,1.70
2024-02-28T02:08:51.194Z,1.67
2024-02-28T02:11:21.700Z,1.48
2024-02-28T02:13:50.310Z,1.42
2024-02-28T02:16:23.758Z,1.42
2024-02-28T02:18:50.994Z,1.30
2024-02-28T02:21:20.468Z,1.88
2024-02-28T02:23:47.272Z,2.05
2024-02-28T02:26:14.157Z,1.63
2024-02-28T02:28:40.869Z,2.13
2024-02-28T02:31:07.656Z,2.30
2024-02-28T02:33:34.421Z,1.80
2024-02-28T02:36:02.254Z,1.92
2024-02-28T02:38:29.008Z,1.73
2024-02-28T02:40:55.772Z,1.52
2024-02-28T02:43:22.520Z,1.67
2024-02-28T02:45:49.387Z,1.40
2024-02-28T02:48:16.456Z,2.20
2024-02-28T02:50:43.287Z,1.00
2024-02-28T02:53:11.785Z,1.92
2024-02-28T02:55:38.688Z,1.02
2024-02-28T02:58:05.631Z,1.75
2024-02-28T03:00:32.562Z,2.28
2024-02-28T03:03:00.016Z,2.08
2024-02-28T03:05:26.907Z,1.40
2024-02-28T03:07:53.768Z,1.38
2024-02-28T03:10:20.736Z,1.30
2024-02-28T03:12:47.536Z,1.27
2024-02-28T03:15:14.397Z,1.20
2024-02-28T03:17:41.383Z,1.40
2024-02-28T03:20:08.802Z,1.98
2024-02-28T03:22:35.952Z,2.30
2024-02-28T03:25:02.991Z,1.60
2024-02-28T03:27:31.065Z,1.63
2024-02-28T03:29:57.999Z,1.80
2024-02-28T03:32:25.164Z,1.50
2024-02-28T03:34:54.561Z,2.03
2024-02-28T03:37:21.365Z,1.60
2024-02-28T03:39:48.188Z,1.10
2024-02-28T03:42:15.047Z,0.98
2024-02-28T03:44:41.811Z,1.85
2024-02-28T03:47:08.635Z,1.50
2024-02-28T03:49:35.336Z,1.42
2024-02-28T03:52:03.319Z,2.08
2024-02-28T03:54:30.283Z,2.55
2024-02-28T03:56:59.746Z,1.80
2024-02-28T03:59:26.481Z,1.02
2024-02-28T04:01:53.227Z,1.10
2024-02-28T04:04:19.974Z,1.80
2024-02-28T04:06:47.183Z,2.03
2024-02-28T04:09:14.049Z,1.45
2024-02-28T04:11:41.043Z,1.60
2024-02-28T04:14:07.776Z,2.38
2024-02-28T04:16:34.581Z,1.50
2024-02-28T04:19:01.756Z,2.15
2024-02-28T04:21:28.796Z,1.60
2024-02-28T04:23:56.042Z,2.00
2024-02-28T04:26:23.074Z,1.70
2024-02-28T04:28:49.871Z,1.90
2024-02-28T04:31:16.669Z,1.85
2024-02-28T04:33:43.653Z,1.33
2024-02-28T04:36:10.521Z,1.30
2024-02-28T04:38:37.453Z,1.52
2024-02-28T04:41:04.757Z,1.98
2024-02-28T04:43:31.544Z,1.73
2024-02-28T04:45:58.386Z,1.50
2024-02-28T04:48:25.366Z,1.95
2024-02-28T04:50:52.794Z,1.70
2024-02-28T04:53:19.779Z,2.20
2024-02-28T04:55:56.817Z,2.42
2024-02-28T04:58:23.699Z,2.00
2024-02-28T05:00:51.700Z,2.55
2024-02-28T05:03:18.865Z,1.85
2024-02-28T05:05:45.739Z,1.55
2024-02-28T05:08:12.568Z,2.78
2024-02-28T05:10:42.678Z,2.05
2024-02-28T05:13:12.308Z,1.88
2024-02-28T05:15:39.308Z,1.95
2024-02-28T05:18:08.540Z,2.00
2024-02-28T05:20:35.346Z,1.88
2024-02-28T05:23:02.121Z,1.90
2024-02-28T05:25:29.013Z,2.83
2024-02-28T05:27:55.805Z,1.80
2024-02-28T05:30:22.725Z,1.88
2024-02-28T05:32:49.546Z,2.28
2024-02-28T05:35:17.915Z,2.05
2024-02-28T05:37:47.866Z,2.25
2024-02-28T05:40:15.419Z,1.90
2024-02-28T05:42:43.672Z,2.10
2024-02-28T05:45:11.640Z,2.00
2024-02-28T05:47:38.600Z,2.00
2024-02-28T05:50:06.490Z,1.85
2024-02-28T05:52:34.518Z,2.97
2024-02-28T05:55:01.370Z,2.05
2024-02-28T05:57:28.484Z,1.50
2024-02-28T05:59:57.188Z,2.45
2024-02-28T06:02:24.015Z,1.67
2024-02-28T06:04:50.872Z,2.13
2024-02-28T06:07:17.617Z,2.20
2024-02-28T06:09:44.544Z,1.88
2024-02-28T06:12:11.445Z,2.35
2024-02-28T06:14:38.650Z,2.05
2024-02-28T06:17:05.637Z,2.63
2024-02-28T06:19:32.447Z,2.17
2024-02-28T06:21:59.424Z,3.47
2024-02-28T06:24:26.457Z,2.30
2024-02-28T06:26:53.349Z,2.65
2024-02-28T06:29:21.456Z,1.73
2024-02-28T06:31:55.586Z,1.63
2024-02-28T06:34:23.526Z,2.70
2024-02-28T06:36:50.437Z,1.90
2024-02-28T06:39:17.351Z,2.70
2024-02-28T06:41:44.146Z,2.42
2024-02-28T06:44:12.359Z,3.80
2024-02-28T06:46:39.217Z,2.67
2024-02-28T06:49:07.224Z,2.50
2024-02-28T06:51:34.338Z,2.72
2024-02-28T06:54:01.190Z,2.67
2024-02-28T06:56:27.948Z,3.80
2024-02-28T06:58:54.932Z,2.95
2024-02-28T07:01:22.171Z,2.83
2024-02-28T07:03:49.150Z,3.53
2024-02-28T07:06:15.992Z,3.63
2024-02-28T07:08:42.975Z,3.13
2024-02-28T07:11:16.621Z,3.65
2024-02-28T07:13:43.626Z,2.60
2024-02-28T07:16:10.344Z,2.42
2024-02-28T07:18:37.313Z,2.75
2024-02-28T07:21:06.483Z,3.17
2024-02-28T07:23:33.552Z,3.58
2024-02-28T07:26:06.148Z,3.30
2024-02-28T07:28:39.493Z,3.45
2024-02-28T07:31:06.313Z,3.33
2024-02-28T07:33:33.189Z,3.25
2024-02-28T07:36:02.196Z,3.17
2024-02-28T07:38:31.829Z,3.03
2024-02-28T07:40:58.972Z,2.63
2024-02-28T07:43:25.843Z,2.78
2024-02-28T07:45:53.893Z,2.42
2024-02-28T07:48:20.907Z,3.28
2024-02-28T07:50:47.888Z,2.22
2024-02-28T07:53:14.766Z,2.50
2024-02-28T07:55:41.494Z,2.38
2024-02-28T07:58:08.698Z,2.72
2024-02-28T08:00:36.991Z,2.53
2024-02-28T08:03:04.604Z,2.42
2024-02-28T08:05:31.465Z,4.68
2024-02-28T08:07:58.260Z,3.17
2024-02-28T08:10:25.294Z,5.22
2024-02-28T08:12:53.113Z,6.80
2024-02-28T08:15:20.002Z,4.32
2024-02-28T08:17:46.812Z,4.07
2024-02-28T08:20:15.547Z,3.40
2024-02-28T08:22:42.320Z,3.17
2024-02-28T08:25:12.939Z,2.50
2024-02-28T08:27:40.261Z,3.20
2024-02-28T08:30:07.547Z,2.92
2024-02-28T08:32:35.055Z,2.83
2024-02-28T08:35:02.493Z,3.80
2024-02-28T08:37:29.949Z,4.43
2024-02-28T08:39:59.019Z,3.67
2024-02-28T08:42:27.769Z,4.35
2024-02-28T08:44:57.478Z,3.00
2024-02-28T08:47:25.320Z,3.78
2024-02-28T08:49:53.041Z,4.07
2024-02-28T08:52:19.860Z,4.60
2024-02-28T08:54:46.974Z,3.35
2024-02-28T08:57:13.754Z,4.97
2024-02-28T08:59:41.203Z,4.30
2024-02-28T09:02:08.902Z,5.50
2024-02-28T09:04:35.883Z,6.50
2024-02-28T09:07:02.725Z,8.10
2024-02-28T09:09:33.910Z,4.88
2024-02-28T09:12:01.181Z,4.40
2024-02-28T09:14:28.087Z,3.63
2024-02-28T09:16:57.097Z,3.97
2024-02-28T09:19:24.378Z,4.38
2024-02-28T09:21:51.304Z,4.20
2024-02-28T09:24:18.174Z,3.10
2024-02-28T09:26:44.977Z,4.35
2024-02-28T09:29:11.976Z,3.28
2024-02-28T09:31:38.842Z,4.68
2024-02-28T09:34:08.766Z,5.15
2024-02-28T09:36:48.566Z,4.68
2024-02-28T09:39:18.260Z,5.25
2024-02-28T09:41:47.397Z,3.00
2024-02-28T09:44:17.181Z,4.32
2024-02-28T09:46:45.104Z,4.85
2024-02-28T09:49:12.015Z,4.13
2024-02-28T09:51:38.889Z,3.95
2024-02-28T09:54:06.434Z,3.65
2024-02-28T09:56:34.273Z,5.95
2024-02-28T09:59:04.129Z,4.53
2024-02-28T10:01:31.767Z,3.70
2024-02-28T10:04:02.091Z,3.53
2024-02-28T10:06:28.985Z,3.38
2024-02-28T10:08:55.773Z,4.10
2024-02-28T10:11:23.289Z,3.47
2024-02-28T10:13:51.180Z,2.65
2024-02-28T10:16:18.092Z,2.50
2024-02-28T10:18:45.459Z,2.08
2024-02-28T10:21:19.068Z,3.38
2024-02-28T10:23:46.410Z,2.90
2024-02-28T10:26:14.233Z,2.72
2024-02-28T10:28:41.789Z,2.58
2024-02-28T10:31:08.942Z,3.53
2024-02-28T10:33:37.424Z,3.53
2024-02-28T10:36:05.787Z,2.55
2024-02-28T10:38:37.300Z,1.42
2024-02-28T10:41:04.452Z,2.33
2024-02-28T10:43:31.977Z,2.65
2024-02-28T10:48:32.440Z,1.85
2024-02-28T10:50:59.762Z,1.65
2024-02-28T10:54:15.308Z,1.63
2024-02-28T10:56:44.164Z,1.80
2024-02-28T10:59:13.621Z,1.58
2024-02-28T11:01:43.848Z,1.05
2024-02-28T11:04:16.578Z,1.10
2024-02-28T11:06:54.873Z,1.05
2024-02-28T11:09:28.574Z,1.10
2024-02-28T11:11:57.133Z,1.00
2024-02-28T11:14:26.698Z,1.02
2024-02-28T11:17:04.501Z,1.27
2024-02-28T11:19:32.947Z,1.05
2024-02-28T11:22:06.476Z,1.02
2024-02-28T11:24:35.908Z,1.38
2024-02-28T11:27:07.280Z,1.27
2024-02-28T11:29:34.403Z,1.73
2024-02-28T11:32:01.250Z,1.52
2024-02-28T11:34:28.192Z,1.70
2024-02-28T11:36:57.197Z,1.10
2024-02-28T11:39:26.409Z,2.15
2024-02-28T11:41:53.957Z,1.67
2024-02-28T11:44:21.314Z,1.48
2024-02-28T11:46:49.473Z,2.17
2024-02-28T11:49:17.280Z,1.20
2024-02-28T11:51:44.834Z,1.40
2024-02-28T11:54:12.415Z,1.23
2024-02-28T11:56:40.225Z,1.25
2024-02-28T11:59:09.040Z,1.35
2024-02-28T12:01:37.396Z,1.13
2024-02-28T12:04:07.758Z,1.00
2024-02-28T12:06:39.122Z,1.25
2024-02-28T12:09:09.897Z,0.93
2024-02-28T12:11:38.132Z,1.60
2024-02-28T12:14:10.533Z,1.08
2024-02-28T12:19:09.283Z,0.98
2024-02-28T12:21:37.107Z,0.98
2024-02-28T12:24:05.753Z,1.00
2024-02-28T12:26:32.761Z,1.40
2024-02-28T12:28:59.519Z,1.63
2024-02-28T12:31:26.571Z,1.40
2024-02-28T12:33:54.022Z,1.70
2024-02-28T12:36:22.015Z,0.90
2024-02-28T12:38:49.448Z,1.27
2024-02-28T12:41:16.786Z,0.80
2024-02-28T12:43:43.642Z,1.20
2024-02-28T12:46:10.541Z,1.10
2024-02-28T12:48:42.057Z,1.30
2024-02-28T12:51:11.871Z,1.27
2024-02-28T12:53:38.620Z,1.20
2024-02-28T12:56:05.668Z,1.77
2024-02-28T12:58:33.280Z,1.17
2024-02-28T13:01:00.223Z,1.25
2024-02-28T13:03:27.071Z,2.03
2024-02-28T13:05:53.907Z,1.90
2024-02-28T13:08:20.834Z,1.48
2024-02-28T13:10:47.713Z,1.52
2024-02-28T13:13:14.659Z,1.58
2024-02-28T13:15:42.294Z,2.15
2024-02-28T13:18:12.004Z,0.93
2024-02-28T13:20:39.252Z,1.70
2024-02-28T13:23:06.260Z,0.93
2024-02-28T13:25:33.210Z,1.30
2024-02-28T13:28:00.204Z,1.30
2024-02-28T13:30:27.115Z,1.80
2024-02-28T13:32:53.966Z,1.20
2024-02-28T13:35:20.813Z,0.68
2024-02-28T13:37:47.618Z,1.27
2024-02-28T13:40:14.601Z,1.45
2024-02-28T13:42:42.392Z,1.08
2024-02-28T13:45:09.946Z,1.15
2024-02-28T13:47:36.857Z,0.90
2024-02-28T13:50:04.502Z,0.63
2024-02-28T13:52:31.298Z,0.85
2024-02-28T13:54:58.214Z,1.88
2024-02-28T13:57:25.389Z,0.82
2024-02-28T13:59:55.323Z,1.08
2024-02-28T14:02:23.661Z,1.13
2024-02-28T14:04:50.614Z,1.05
2024-02-28T14:07:17.602Z,1.40
2024-02-28T14:09:47.716Z,0.88
2024-02-28T14:12:14.976Z,2.08
2024-02-28T14:14:41.976Z,1.17
2024-02-28T14:17:08.826Z,1.67
2024-02-28T14:19:37.149Z,2.03
2024-02-28T14:22:05.572Z,1.83
2024-02-28T14:24:32.693Z,1.15
2024-02-28T14:26:59.538Z,1.25
2024-02-28T14:29:26.389Z,2.13
2024-02-28T14:31:53.282Z,3.28
2024-02-28T14:34:20.141Z,1.42
2024-02-28T14:36:47.018Z,2.13
2024-02-28T14:39:16.731Z,2.25
2024-02-28T14:41:46.698Z,1.65
2024-02-28T14:44:13.598Z,2.28
2024-02-28T14:46:40.768Z,1.63
2024-02-28T14:49:07.648Z,1.92
2024-02-28T14:51:34.687Z,2.63
2024-02-28T14:54:01.588Z,3.05
2024-02-28T14:56:29.187Z,2.03
2024-02-28T14:58:59.941Z,2.03
2024-02-28T15:01:28.115Z,2.22
2024-02-28T15:03:55.289Z,2.42
2024-02-28T15:06:22.215Z,2.40
2024-02-28T15:08:50.011Z,2.53
2024-02-28T15:11:17.498Z,2.17
2024-02-28T15:13:44.396Z,2.42
2024-02-28T15:16:12.580Z,2.15
2024-02-28T15:18:39.589Z,2.90
2024-02-28T15:21:08.605Z,1.23
2024-02-28T15:23:36.076Z,2.03
2024-02-28T15:26:02.972Z,1.60
2024-02-28T15:28:31.641Z,1.98
2024-02-28T15:30:59.489Z,1.27
2024-02-28T15:33:26.668Z,3.22
2024-02-28T15:35:53.546Z,1.55
2024-02-28T15:38:20.493Z,1.63
2024-02-28T15:40:47.519Z,1.65
2024-02-28T15:43:15.047Z,2.55
2024-02-28T15:45:44.447Z,2.38
2024-02-28T15:48:11.578Z,1.13
2024-02-28T15:50:38.472Z,2.00
2024-02-28T15:53:05.711Z,1.83
2024-02-28T15:55:32.916Z,2.45
2024-02-28T15:58:00.360Z,3.08
2024-02-28T16:00:27.388Z,1.67
2024-02-28T16:02:54.298Z,1.65
2024-02-28T16:05:25.902Z,2.38
2024-02-28T16:07:53.480Z,2.03
2024-02-28T16:10:21.310Z,2.63
2024-02-28T16:12:48.464Z,1.98
2024-02-28T16:15:15.803Z,2.00
2024-02-28T16:17:42.932Z,1.13
2024-02-28T16:20:10.596Z,2.05
2024-02-28T16:22:37.615Z,1.65
2024-02-28T16:25:05.480Z,1.42
2024-02-28T16:27:32.586Z,2.17
2024-02-28T16:29:59.495Z,3.00
2024-02-28T16:32:26.449Z,0.93
2024-02-28T16:34:53.315Z,1.85
2024-02-28T16:37:20.093Z,1.13
2024-02-28T16:39:47.147Z,1.27
2024-02-28T16:42:14.015Z,1.15
2024-02-28T16:44:40.954Z,0.70
2024-02-28T16:47:07.737Z,0.85
2024-02-28T16:49:34.617Z,0.50
2024-02-28T16:52:01.469Z,0.65
2024-02-28T16:54:28.331Z,0.65
2024-02-28T16:56:58.270Z,0.77
2024-02-28T16:59:25.077Z,0.63
2024-02-28T17:01:51.933Z,0.85
2024-02-28T17:04:18.995Z,1.10
2024-02-28T17:06:45.859Z,0.35
2024-02-28T17:09:12.760Z,0.63
2024-02-28T17:11:39.677Z,0.35
2024-02-28T17:14:06.938Z,0.95
2024-02-28T17:16:33.788Z,0.60
2024-02-28T17:19:00.593Z,0.70
2024-02-28T17:21:27.505Z,0.43
2024-02-28T17:23:54.303Z,0.50
2024-02-28T17:26:21.076Z,0.45
2024-02-28T17:28:49.454Z,1.00
2024-02-28T17:31:16.626Z,1.30
2024-02-28T17:33:44.140Z,0.47
2024-02-28T17:36:13.753Z,0.47
2024-02-28T17:38:40.755Z,0.60
2024-02-28T17:41:09.906Z,0.70
2024-02-28T17:43:37.224Z,1.05
2024-02-28T17:46:04.566Z,0.90
2024-02-28T17:48:35.991Z,0.85
2024-02-28T17:51:04.517Z,1.23
2024-02-28T17:53:31.401Z,0.70
2024-02-28T17:55:58.556Z,0.85
2024-02-28T17:58:25.613Z,0.70
2024-02-28T18:00:54.021Z,1.80
2024-02-28T18:03:20.990Z,0.80
2024-02-28T18:05:47.719Z,1.02
2024-02-28T18:08:14.824Z,1.20
2024-02-28T18:10:43.233Z,0.60
2024-02-28T18:13:14.051Z,0.70
2024-02-28T18:15:41.046Z,0.65
2024-02-28T18:18:07.861Z,1.00
2024-02-28T18:20:34.683Z,0.93
2024-02-28T18:23:01.487Z,1.00
2024-02-28T18:25:28.209Z,0.70
2024-02-28T18:27:55.011Z,0.98
2024-02-28T18:30:25.406Z,1.13
2024-02-28T18:32:52.609Z,1.17
2024-02-28T18:35:19.465Z,0.68
2024-02-28T18:37:46.381Z,0.70
2024-02-28T18:40:16.593Z,0.93
2024-02-28T18:42:44.461Z,1.15
2024-02-28T18:45:12.456Z,0.98
2024-02-28T18:47:40.180Z,1.10
2024-02-28T18:50:08.345Z,1.10
2024-02-28T18:52:35.177Z,0.88
2024-02-28T18:55:02.357Z,1.42
2024-02-28T18:57:29.280Z,1.67
2024-02-28T18:59:56.163Z,1.10
2024-02-28T19:02:23.074Z,1.25
2024-02-28T19:04:50.039Z,1.25
2024-02-28T19:07:17.265Z,1.25
2024-02-28T19:09:44.154Z,1.13
2024-02-28T19:12:10.974Z,0.70
2024-02-28T19:14:38.554Z,1.05
2024-02-28T19:17:05.582Z,1.33
2024-02-28T19:19:33.814Z,1.33
2024-02-28T19:22:00.712Z,1.02
2024-02-28T19:24:27.611Z,1.08
2024-02-28T19:26:54.974Z,0.90
2024-02-28T19:29:21.781Z,1.02
2024-02-28T19:31:49.046Z,1.40
2024-02-28T19:34:16.064Z,1.17
2024-02-28T19:36:44.332Z,0.93
2024-02-28T19:39:11.204Z,0.60
2024-02-28T19:41:39.769Z,0.80
2024-02-28T19:44:08.041Z,0.80
2024-02-28T19:46:35.083Z,0.88
2024-02-28T19:49:02.319Z,1.02
2024-02-28T19:51:29.498Z,1.48
2024-02-28T19:53:56.265Z,1.05
2024-02-28T19:56:24.590Z,1.60
2024-02-28T19:58:52.392Z,1.02
2024-02-28T20:01:19.501Z,0.93
2024-02-28T20:03:46.486Z,1.10
2024-02-28T20:06:13.308Z,0.93
2024-02-28T20:08:40.909Z,1.15
2024-02-28T20:11:08.952Z,1.23
2024-02-28T20:13:36.150Z,0.90
2024-02-28T20:16:03.222Z,1.10
2024-02-28T20:18:30.102Z,1.15
2024-02-28T20:20:56.881Z,0.88
2024-02-28T20:23:23.723Z,0.93
2024-02-28T20:25:51.021Z,0.82
2024-02-28T20:28:22.423Z,0.95
2024-02-28T20:30:50.280Z,0.70
2024-02-28T20:33:19.042Z,0.90
2024-02-28T20:35:45.779Z,0.93
2024-02-28T20:38:12.623Z,0.70
2024-02-28T20:40:39.575Z,0.70
2024-02-28T20:43:06.518Z,0.98
2024-02-28T20:45:36.128Z,0.80
2024-02-28T20:48:04.256Z,1.10
2024-02-28T20:50:31.081Z,0.50
2024-02-28T20:52:59.792Z,0.70
2024-02-28T20:55:29.554Z,1.42
2024-02-28T20:57:56.518Z,0.70
2024-02-28T21:00:24.200Z,0.55
2024-02-28T21:02:51.247Z,0.52
2024-02-28T21:05:18.110Z,0.88
2024-02-28T21:07:51.828Z,0.82
2024-02-28T21:10:20.197Z,0.80
2024-02-28T21:12:47.049Z,0.80
2024-02-28T21:15:14.074Z,1.00
2024-02-28T21:17:40.913Z,1.00
2024-02-28T21:20:09.372Z,1.00
2024-02-28T21:22:41.526Z,1.23
2024-02-28T21:25:08.786Z,0.70
2024-02-28T21:27:36.496Z,1.27
2024-02-28T21:30:05.275Z,0.73
2024-02-28T21:32:32.054Z,1.15
2024-02-28T21:35:01.869Z,1.02
2024-02-28T21:37:28.641Z,0.95
2024-02-28T21:39:55.456Z,1.25
2024-02-28T21:42:22.255Z,0.98
2024-02-28T21:44:49.064Z,0.90
2024-02-28T21:47:15.913Z,1.08
2024-02-28T21:49:43.141Z,0.93
2024-02-28T21:52:11.709Z,0.70
2024-02-28T21:54:42.753Z,0.80
2024-02-28T21:57:11.067Z,0.88
2024-02-28T21:59:38.127Z,0.70
2024-02-28T22:02:05.102Z,0.50
2024-02-28T22:04:31.987Z,1.13
2024-02-28T22:06:59.350Z,0.52
2024-02-28T22:09:26.795Z,0.60
2024-02-28T22:11:53.832Z,0.40
2024-02-28T22:14:20.666Z,0.38
2024-02-28T22:16:47.535Z,0.70
2024-02-28T22:19:14.767Z,0.50
2024-02-28T22:21:42.000Z,0.60
2024-02-28T22:24:09.534Z,0.68
2024-02-28T22:26:36.483Z,0.73
2024-02-28T22:29:03.908Z,0.80
2024-02-28T22:31:30.856Z,0.73
2024-02-28T22:33:57.800Z,0.50
2024-02-28T22:36:24.951Z,0.65
2024-02-28T22:38:53.678Z,0.88
2024-02-28T22:41:24.690Z,0.55
2024-02-28T22:43:51.726Z,0.55
2024-02-28T22:46:18.799Z,0.80
2024-02-28T22:48:45.743Z,0.52
2024-02-28T22:51:12.593Z,0.40
2024-02-28T22:53:40.628Z,0.45
2024-02-28T22:56:07.404Z,0.95
2024-02-28T22:58:34.175Z,0.70
2024-02-28T23:01:01.198Z,0.55
2024-02-28T23:03:28.136Z,0.77
2024-02-28T23:05:55.080Z,0.68
2024-02-28T23:08:22.192Z,0.70
2024-02-28T23:10:49.048Z,0.55
2024-02-28T23:13:16.595Z,0.50
2024-02-28T23:15:44.280Z,0.70
2024-02-28T23:18:12.009Z,0.57
2024-02-28T23:20:39.278Z,0.40
2024-02-28T23:23:06.809Z,1.13
2024-02-28T23:25:36.184Z,0.60
2024-02-28T23:28:03.824Z,0.77
2024-02-28T23:30:31.053Z,0.60
2024-02-28T23:33:02.514Z,0.40
2024-02-28T23:35:29.854Z,0.60
2024-02-28T23:37:56.808Z,0.80
2024-02-28T23:40:24.173Z,0.50
2024-02-28T23:42:51.206Z,0.60
2024-02-28T23:45:18.227Z,0.85
2024-02-28T23:47:45.426Z,0.95
2024-02-28T23:50:12.917Z,1.23
2024-02-28T23:52:39.800Z,0.68
2024-02-28T23:55:06.933Z,1.77
2024-02-28T23:57:34.017Z,0.60
